sensor_id;sensor_type;location;lat;lon;timestamp;P1;durP1;ratioP1;P2;durP2;ratioP2
12112;SDS011;6120;52.250;8.478;2022-11-10T00:00:53;11.32;;;2.83;;
12112;SDS011;6120;52.250;8.478;2022-11-10T00:03:20;11.23;;;2.92;;
12112;SDS011;6120;52.250;8.478;2022-11-10T00:05:47;11.10;;;3.30;;
12112;SDS011;6120;52.250;8.478;2022-11-10T00:08:14;10.02;;;3.40;;
12112;SDS011;6120;52.250;8.478;2022-11-10T00:10:40;9.10;;;3.67;;
12112;SDS011;6120;52.250;8.478;2022-11-10T00:13:30;17.27;;;3.80;;
12112;SDS011;6120;52.250;8.478;2022-11-10T00:16:01;15.35;;;4.25;;
12112;SDS011;6120;52.250;8.478;2022-11-10T00:18:48;10.10;;;3.22;;
12112;SDS011;6120;52.250;8.478;2022-11-10T00:21:15;17.73;;;3.35;;
12112;SDS011;6120;52.250;8.478;2022-11-10T00:23:43;9.30;;;3.03;;
12112;SDS011;6120;52.250;8.478;2022-11-10T00:26:13;10.30;;;3.83;;
12112;SDS011;6120;52.250;8.478;2022-11-10T00:28:41;11.02;;;3.53;;
12112;SDS011;6120;52.250;8.478;2022-11-10T00:31:08;14.57;;;3.30;;
12112;SDS011;6120;52.250;8.478;2022-11-10T00:33:39;13.52;;;3.40;;
12112;SDS011;6120;52.250;8.478;2022-11-10T00:36:07;13.30;;;3.42;;
12112;SDS011;6120;52.250;8.478;2022-11-10T00:38:34;18.58;;;4.40;;
12112;SDS011;6120;52.250;8.478;2022-11-10T00:41:00;13.85;;;3.42;;
12112;SDS011;6120;52.250;8.478;2022-11-10T00:43:27;9.00;;;3.50;;
12112;SDS011;6120;52.250;8.478;2022-11-10T00:45:55;10.65;;;3.72;;
12112;SDS011;6120;52.250;8.478;2022-11-10T00:48:22;11.57;;;3.63;;
12112;SDS011;6120;52.250;8.478;2022-11-10T00:50:48;14.43;;;4.22;;
12112;SDS011;6120;52.250;8.478;2022-11-10T00:53:15;13.30;;;3.90;;
12112;SDS011;6120;52.250;8.478;2022-11-10T00:55:42;8.93;;;3.30;;
12112;SDS011;6120;52.250;8.478;2022-11-10T00:58:09;17.83;;;4.10;;
12112;SDS011;6120;52.250;8.478;2022-11-10T01:00:35;12.43;;;3.80;;
12112;SDS011;6120;52.250;8.478;2022-11-10T01:03:02;11.85;;;4.00;;
12112;SDS011;6120;52.250;8.478;2022-11-10T01:05:29;14.00;;;3.78;;
12112;SDS011;6120;52.250;8.478;2022-11-10T01:07:56;10.82;;;4.07;;
12112;SDS011;6120;52.250;8.478;2022-11-10T01:10:25;11.35;;;4.32;;
12112;SDS011;6120;52.250;8.478;2022-11-10T01:12:52;15.65;;;3.78;;
12112;SDS011;6120;52.250;8.478;2022-11-10T01:15:19;11.82;;;3.67;;
12112;SDS011;6120;52.250;8.478;2022-11-10T01:17:53;14.57;;;3.70;;
12112;SDS011;6120;52.250;8.478;2022-11-10T01:20:20;10.52;;;3.35;;
12112;SDS011;6120;52.250;8.478;2022-11-10T01:22:48;18.38;;;4.07;;
12112;SDS011;6120;52.250;8.478;2022-11-10T01:25:14;11.60;;;3.58;;
12112;SDS011;6120;52.250;8.478;2022-11-10T01:27:41;9.10;;;3.67;;
12112;SDS011;6120;52.250;8.478;2022-11-10T01:30:07;13.85;;;3.85;;
12112;SDS011;6120;52.250;8.478;2022-11-10T01:32:34;15.60;;;4.72;;
12112;SDS011;6120;52.250;8.478;2022-11-10T01:35:01;16.85;;;4.20;;
12112;SDS011;6120;52.250;8.478;2022-11-10T01:37:27;15.25;;;4.22;;
12112;SDS011;6120;52.250;8.478;2022-11-10T01:39:54;12.88;;;4.40;;
12112;SDS011;6120;52.250;8.478;2022-11-10T01:42:22;15.23;;;4.85;;
12112;SDS011;6120;52.250;8.478;2022-11-10T01:47:55;13.88;;;5.70;;
12112;SDS011;6120;52.250;8.478;2022-11-10T01:50:25;17.13;;;5.13;;
12112;SDS011;6120;52.250;8.478;2022-11-10T01:52:54;16.25;;;5.25;;
12112;SDS011;6120;52.250;8.478;2022-11-10T01:55:23;13.20;;;4.72;;
12112;SDS011;6120;52.250;8.478;2022-11-10T01:57:50;18.02;;;5.10;;
12112;SDS011;6120;52.250;8.478;2022-11-10T02:00:17;16.10;;;4.63;;
12112;SDS011;6120;52.250;8.478;2022-11-10T02:02:46;16.13;;;5.40;;
12112;SDS011;6120;52.250;8.478;2022-11-10T02:05:16;14.20;;;5.10;;
12112;SDS011;6120;52.250;8.478;2022-11-10T02:07:42;13.15;;;4.78;;
12112;SDS011;6120;52.250;8.478;2022-11-10T02:10:13;14.85;;;5.45;;
12112;SDS011;6120;52.250;8.478;2022-11-10T02:12:41;14.07;;;5.72;;
12112;SDS011;6120;52.250;8.478;2022-11-10T02:15:09;15.73;;;7.40;;
12112;SDS011;6120;52.250;8.478;2022-11-10T02:17:37;18.98;;;6.00;;
12112;SDS011;6120;52.250;8.478;2022-11-10T02:20:06;16.33;;;5.40;;
12112;SDS011;6120;52.250;8.478;2022-11-10T02:22:35;15.70;;;5.68;;
12112;SDS011;6120;52.250;8.478;2022-11-10T02:25:03;17.85;;;6.15;;
12112;SDS011;6120;52.250;8.478;2022-11-10T02:27:30;20.13;;;5.90;;
12112;SDS011;6120;52.250;8.478;2022-11-10T02:29:57;17.23;;;6.25;;
12112;SDS011;6120;52.250;8.478;2022-11-10T02:32:24;11.65;;;5.70;;
12112;SDS011;6120;52.250;8.478;2022-11-10T02:34:51;19.80;;;6.35;;
12112;SDS011;6120;52.250;8.478;2022-11-10T02:37:18;19.13;;;6.95;;
12112;SDS011;6120;52.250;8.478;2022-11-10T02:39:44;16.75;;;6.00;;
12112;SDS011;6120;52.250;8.478;2022-11-10T02:42:11;17.80;;;6.65;;
12112;SDS011;6120;52.250;8.478;2022-11-10T02:44:38;25.00;;;7.10;;
12112;SDS011;6120;52.250;8.478;2022-11-10T02:47:05;15.32;;;6.30;;
12112;SDS011;6120;52.250;8.478;2022-11-10T02:49:32;16.17;;;6.20;;
12112;SDS011;6120;52.250;8.478;2022-11-10T02:51:59;19.13;;;6.63;;
12112;SDS011;6120;52.250;8.478;2022-11-10T02:54:25;19.08;;;6.65;;
12112;SDS011;6120;52.250;8.478;2022-11-10T02:56:52;17.90;;;7.45;;
12112;SDS011;6120;52.250;8.478;2022-11-10T02:59:18;17.08;;;7.03;;
12112;SDS011;6120;52.250;8.478;2022-11-10T03:01:45;19.67;;;7.30;;
12112;SDS011;6120;52.250;8.478;2022-11-10T03:04:12;16.73;;;7.38;;
12112;SDS011;6120;52.250;8.478;2022-11-10T03:06:39;18.13;;;7.65;;
12112;SDS011;6120;52.250;8.478;2022-11-10T03:09:05;18.85;;;7.70;;
12112;SDS011;6120;52.250;8.478;2022-11-10T03:11:32;21.40;;;8.70;;
12112;SDS011;6120;52.250;8.478;2022-11-10T03:13:58;14.50;;;7.47;;
12112;SDS011;6120;52.250;8.478;2022-11-10T03:16:27;20.63;;;8.43;;
12112;SDS011;6120;52.250;8.478;2022-11-10T03:18:54;18.67;;;8.15;;
12112;SDS011;6120;52.250;8.478;2022-11-10T03:21:20;19.08;;;8.98;;
12112;SDS011;6120;52.250;8.478;2022-11-10T03:23:47;19.42;;;8.57;;
12112;SDS011;6120;52.250;8.478;2022-11-10T03:26:14;19.83;;;8.95;;
12112;SDS011;6120;52.250;8.478;2022-11-10T03:28:40;21.38;;;7.93;;
12112;SDS011;6120;52.250;8.478;2022-11-10T03:31:07;25.58;;;10.30;;
12112;SDS011;6120;52.250;8.478;2022-11-10T03:33:33;25.80;;;9.30;;
12112;SDS011;6120;52.250;8.478;2022-11-10T03:36:00;18.55;;;8.93;;
12112;SDS011;6120;52.250;8.478;2022-11-10T03:38:27;20.02;;;9.13;;
12112;SDS011;6120;52.250;8.478;2022-11-10T03:40:54;19.70;;;9.38;;
12112;SDS011;6120;52.250;8.478;2022-11-10T03:43:40;22.77;;;8.95;;
12112;SDS011;6120;52.250;8.478;2022-11-10T03:46:07;19.75;;;9.20;;
12112;SDS011;6120;52.250;8.478;2022-11-10T03:48:34;27.35;;;9.10;;
12112;SDS011;6120;52.250;8.478;2022-11-10T03:51:01;24.15;;;10.57;;
12112;SDS011;6120;52.250;8.478;2022-11-10T03:53:27;24.00;;;9.98;;
12112;SDS011;6120;52.250;8.478;2022-11-10T03:55:54;27.65;;;10.77;;
12112;SDS011;6120;52.250;8.478;2022-11-10T03:58:20;24.88;;;11.00;;
12112;SDS011;6120;52.250;8.478;2022-11-10T04:00:47;24.88;;;9.93;;
12112;SDS011;6120;52.250;8.478;2022-11-10T04:03:13;20.85;;;11.07;;
12112;SDS011;6120;52.250;8.478;2022-11-10T04:05:41;26.23;;;11.50;;
12112;SDS011;6120;52.250;8.478;2022-11-10T04:08:26;24.02;;;11.02;;
12112;SDS011;6120;52.250;8.478;2022-11-10T04:11:11;18.73;;;11.57;;
12112;SDS011;6120;52.250;8.478;2022-11-10T04:13:37;21.80;;;11.25;;
12112;SDS011;6120;52.250;8.478;2022-11-10T04:16:23;18.98;;;11.25;;
12112;SDS011;6120;52.250;8.478;2022-11-10T04:18:49;24.88;;;12.25;;
12112;SDS011;6120;52.250;8.478;2022-11-10T04:21:16;20.92;;;12.27;;
12112;SDS011;6120;52.250;8.478;2022-11-10T04:23:42;34.05;;;12.77;;
12112;SDS011;6120;52.250;8.478;2022-11-10T04:26:10;28.38;;;12.30;;
12112;SDS011;6120;52.250;8.478;2022-11-10T04:29:00;24.42;;;11.85;;
12112;SDS011;6120;52.250;8.478;2022-11-10T04:31:28;31.90;;;12.95;;
12112;SDS011;6120;52.250;8.478;2022-11-10T04:33:56;26.65;;;12.27;;
12112;SDS011;6120;52.250;8.478;2022-11-10T04:36:24;25.60;;;12.23;;
12112;SDS011;6120;52.250;8.478;2022-11-10T04:38:52;27.48;;;12.88;;
12112;SDS011;6120;52.250;8.478;2022-11-10T04:41:23;25.10;;;12.27;;
12112;SDS011;6120;52.250;8.478;2022-11-10T04:43:50;25.38;;;12.52;;
12112;SDS011;6120;52.250;8.478;2022-11-10T04:46:28;25.35;;;12.40;;
12112;SDS011;6120;52.250;8.478;2022-11-10T04:48:59;27.60;;;13.35;;
12112;SDS011;6120;52.250;8.478;2022-11-10T04:51:27;26.60;;;13.48;;
12112;SDS011;6120;52.250;8.478;2022-11-10T04:53:57;30.77;;;13.27;;
12112;SDS011;6120;52.250;8.478;2022-11-10T04:56:25;25.13;;;11.90;;
12112;SDS011;6120;52.250;8.478;2022-11-10T04:58:52;35.03;;;12.27;;
12112;SDS011;6120;52.250;8.478;2022-11-10T05:01:20;36.38;;;14.10;;
12112;SDS011;6120;52.250;8.478;2022-11-10T05:03:51;27.77;;;12.48;;
12112;SDS011;6120;52.250;8.478;2022-11-10T05:06:18;28.80;;;12.25;;
12112;SDS011;6120;52.250;8.478;2022-11-10T05:08:45;26.60;;;11.80;;
12112;SDS011;6120;52.250;8.478;2022-11-10T05:11:12;23.08;;;12.60;;
12112;SDS011;6120;52.250;8.478;2022-11-10T05:13:39;23.83;;;12.48;;
12112;SDS011;6120;52.250;8.478;2022-11-10T05:16:06;25.90;;;12.45;;
12112;SDS011;6120;52.250;8.478;2022-11-10T05:18:33;32.28;;;13.90;;
12112;SDS011;6120;52.250;8.478;2022-11-10T05:21:00;23.38;;;12.90;;
12112;SDS011;6120;52.250;8.478;2022-11-10T05:23:26;25.10;;;12.73;;
12112;SDS011;6120;52.250;8.478;2022-11-10T05:26:08;33.60;;;13.18;;
12112;SDS011;6120;52.250;8.478;2022-11-10T05:28:39;29.63;;;12.80;;
12112;SDS011;6120;52.250;8.478;2022-11-10T05:31:07;28.02;;;13.27;;
12112;SDS011;6120;52.250;8.478;2022-11-10T05:33:34;30.63;;;13.18;;
12112;SDS011;6120;52.250;8.478;2022-11-10T05:36:01;35.42;;;13.25;;
12112;SDS011;6120;52.250;8.478;2022-11-10T05:38:27;28.38;;;12.18;;
12112;SDS011;6120;52.250;8.478;2022-11-10T05:40:54;25.67;;;13.38;;
12112;SDS011;6120;52.250;8.478;2022-11-10T05:43:21;24.20;;;12.32;;
12112;SDS011;6120;52.250;8.478;2022-11-10T05:45:49;27.20;;;13.07;;
12112;SDS011;6120;52.250;8.478;2022-11-10T05:48:15;31.40;;;14.13;;
12112;SDS011;6120;52.250;8.478;2022-11-10T05:50:42;30.00;;;15.30;;
12112;SDS011;6120;52.250;8.478;2022-11-10T05:53:09;29.17;;;14.23;;
12112;SDS011;6120;52.250;8.478;2022-11-10T05:55:36;31.40;;;14.85;;
12112;SDS011;6120;52.250;8.478;2022-11-10T05:58:03;27.13;;;13.90;;
12112;SDS011;6120;52.250;8.478;2022-11-10T06:00:30;29.95;;;14.38;;
12112;SDS011;6120;52.250;8.478;2022-11-10T06:02:57;30.27;;;14.00;;
12112;SDS011;6120;52.250;8.478;2022-11-10T06:05:32;31.67;;;15.27;;
12112;SDS011;6120;52.250;8.478;2022-11-10T06:08:01;29.35;;;13.48;;
12112;SDS011;6120;52.250;8.478;2022-11-10T06:10:29;27.95;;;13.70;;
12112;SDS011;6120;52.250;8.478;2022-11-10T06:12:56;25.38;;;12.63;;
12112;SDS011;6120;52.250;8.478;2022-11-10T06:15:23;29.10;;;13.18;;
12112;SDS011;6120;52.250;8.478;2022-11-10T06:17:50;33.60;;;13.02;;
12112;SDS011;6120;52.250;8.478;2022-11-10T06:20:16;33.45;;;14.55;;
12112;SDS011;6120;52.250;8.478;2022-11-10T06:22:44;32.72;;;13.07;;
12112;SDS011;6120;52.250;8.478;2022-11-10T06:25:24;28.80;;;12.40;;
12112;SDS011;6120;52.250;8.478;2022-11-10T06:27:51;35.40;;;11.30;;
12112;SDS011;6120;52.250;8.478;2022-11-10T06:30:17;29.45;;;12.38;;
12112;SDS011;6120;52.250;8.478;2022-11-10T06:32:44;28.95;;;12.80;;
12112;SDS011;6120;52.250;8.478;2022-11-10T06:35:11;30.77;;;13.32;;
12112;SDS011;6120;52.250;8.478;2022-11-10T06:37:38;32.28;;;14.27;;
12112;SDS011;6120;52.250;8.478;2022-11-10T06:40:05;29.70;;;13.32;;
12112;SDS011;6120;52.250;8.478;2022-11-10T06:42:33;32.65;;;13.40;;
12112;SDS011;6120;52.250;8.478;2022-11-10T06:45:00;24.65;;;12.43;;
12112;SDS011;6120;52.250;8.478;2022-11-10T06:47:26;31.75;;;12.18;;
12112;SDS011;6120;52.250;8.478;2022-11-10T06:49:53;33.28;;;13.43;;
12112;SDS011;6120;52.250;8.478;2022-11-10T06:52:20;31.48;;;13.30;;
12112;SDS011;6120;52.250;8.478;2022-11-10T06:54:46;29.50;;;12.73;;
12112;SDS011;6120;52.250;8.478;2022-11-10T06:57:13;33.15;;;13.90;;
12112;SDS011;6120;52.250;8.478;2022-11-10T06:59:40;26.00;;;12.68;;
12112;SDS011;6120;52.250;8.478;2022-11-10T07:02:08;33.33;;;13.95;;
12112;SDS011;6120;52.250;8.478;2022-11-10T07:04:38;29.83;;;13.65;;
12112;SDS011;6120;52.250;8.478;2022-11-10T07:07:05;31.27;;;13.02;;
12112;SDS011;6120;52.250;8.478;2022-11-10T07:09:32;32.60;;;13.80;;
12112;SDS011;6120;52.250;8.478;2022-11-10T07:11:58;27.60;;;12.52;;
12112;SDS011;6120;52.250;8.478;2022-11-10T07:14:25;25.63;;;12.85;;
12112;SDS011;6120;52.250;8.478;2022-11-10T07:16:51;31.08;;;12.35;;
12112;SDS011;6120;52.250;8.478;2022-11-10T07:19:18;24.80;;;12.75;;
12112;SDS011;6120;52.250;8.478;2022-11-10T07:21:44;29.13;;;12.50;;
12112;SDS011;6120;52.250;8.478;2022-11-10T07:24:11;27.35;;;12.90;;
12112;SDS011;6120;52.250;8.478;2022-11-10T07:26:38;27.88;;;13.05;;
12112;SDS011;6120;52.250;8.478;2022-11-10T07:29:04;31.25;;;14.20;;
12112;SDS011;6120;52.250;8.478;2022-11-10T07:31:31;24.80;;;12.20;;
12112;SDS011;6120;52.250;8.478;2022-11-10T07:33:57;27.92;;;13.30;;
12112;SDS011;6120;52.250;8.478;2022-11-10T07:36:24;33.42;;;13.30;;
12112;SDS011;6120;52.250;8.478;2022-11-10T07:38:54;25.88;;;13.98;;
12112;SDS011;6120;52.250;8.478;2022-11-10T07:41:21;23.88;;;12.35;;
12112;SDS011;6120;52.250;8.478;2022-11-10T07:43:47;31.35;;;12.73;;
12112;SDS011;6120;52.250;8.478;2022-11-10T07:46:14;26.75;;;12.95;;
12112;SDS011;6120;52.250;8.478;2022-11-10T07:48:40;32.10;;;14.43;;
12112;SDS011;6120;52.250;8.478;2022-11-10T07:51:07;29.08;;;13.82;;
12112;SDS011;6120;52.250;8.478;2022-11-10T07:53:33;29.65;;;14.63;;
12112;SDS011;6120;52.250;8.478;2022-11-10T07:56:00;29.17;;;13.07;;
12112;SDS011;6120;52.250;8.478;2022-11-10T07:58:27;28.63;;;14.07;;
12112;SDS011;6120;52.250;8.478;2022-11-10T08:00:54;30.73;;;13.83;;
12112;SDS011;6120;52.250;8.478;2022-11-10T08:03:21;28.52;;;13.73;;
12112;SDS011;6120;52.250;8.478;2022-11-10T08:05:48;30.33;;;13.82;;
12112;SDS011;6120;52.250;8.478;2022-11-10T08:08:15;23.88;;;13.05;;
12112;SDS011;6120;52.250;8.478;2022-11-10T08:10:42;24.65;;;13.40;;
12112;SDS011;6120;52.250;8.478;2022-11-10T08:13:09;31.67;;;14.80;;
12112;SDS011;6120;52.250;8.478;2022-11-10T08:15:37;33.38;;;13.35;;
12112;SDS011;6120;52.250;8.478;2022-11-10T08:18:06;28.83;;;14.45;;
12112;SDS011;6120;52.250;8.478;2022-11-10T08:20:43;26.10;;;13.00;;
12112;SDS011;6120;52.250;8.478;2022-11-10T08:23:10;28.35;;;13.40;;
12112;SDS011;6120;52.250;8.478;2022-11-10T08:25:37;28.05;;;14.45;;
12112;SDS011;6120;52.250;8.478;2022-11-10T08:28:05;29.05;;;13.15;;
12112;SDS011;6120;52.250;8.478;2022-11-10T08:30:37;36.72;;;14.63;;
12112;SDS011;6120;52.250;8.478;2022-11-10T08:33:06;24.88;;;13.38;;
12112;SDS011;6120;52.250;8.478;2022-11-10T08:35:34;25.98;;;11.68;;
12112;SDS011;6120;52.250;8.478;2022-11-10T08:38:06;30.08;;;13.45;;
12112;SDS011;6120;52.250;8.478;2022-11-10T08:40:37;23.88;;;11.65;;
12112;SDS011;6120;52.250;8.478;2022-11-10T08:43:04;24.98;;;11.63;;
12112;SDS011;6120;52.250;8.478;2022-11-10T08:45:34;35.30;;;15.15;;
12112;SDS011;6120;52.250;8.478;2022-11-10T08:48:03;24.98;;;12.63;;
12112;SDS011;6120;52.250;8.478;2022-11-10T08:50:37;26.92;;;12.45;;
12112;SDS011;6120;52.250;8.478;2022-11-10T08:53:05;29.20;;;12.20;;
12112;SDS011;6120;52.250;8.478;2022-11-10T08:55:34;26.13;;;12.23;;
12112;SDS011;6120;52.250;8.478;2022-11-10T08:58:02;30.15;;;13.07;;
12112;SDS011;6120;52.250;8.478;2022-11-10T09:00:29;32.83;;;12.13;;
12112;SDS011;6120;52.250;8.478;2022-11-10T09:03:30;28.77;;;12.75;;
12112;SDS011;6120;52.250;8.478;2022-11-10T09:05:51;29.38;;;11.18;;
12112;SDS011;6120;52.250;8.478;2022-11-10T09:08:23;20.48;;;10.90;;
12112;SDS011;6120;52.250;8.478;2022-11-10T09:10:50;25.77;;;11.77;;
12112;SDS011;6120;52.250;8.478;2022-11-10T09:13:17;26.83;;;10.32;;
12112;SDS011;6120;52.250;8.478;2022-11-10T09:15:53;26.63;;;10.55;;
12112;SDS011;6120;52.250;8.478;2022-11-10T09:18:19;20.67;;;9.63;;
12112;SDS011;6120;52.250;8.478;2022-11-10T09:20:46;23.60;;;9.75;;
12112;SDS011;6120;52.250;8.478;2022-11-10T09:23:13;21.17;;;10.32;;
12112;SDS011;6120;52.250;8.478;2022-11-10T09:28:11;26.83;;;10.15;;
12112;SDS011;6120;52.250;8.478;2022-11-10T09:30:39;23.50;;;9.95;;
12112;SDS011;6120;52.250;8.478;2022-11-10T09:33:06;20.23;;;8.48;;
12112;SDS011;6120;52.250;8.478;2022-11-10T09:35:33;20.10;;;9.10;;
12112;SDS011;6120;52.250;8.478;2022-11-10T09:38:00;24.50;;;8.27;;
12112;SDS011;6120;52.250;8.478;2022-11-10T09:43:20;18.88;;;7.13;;
12112;SDS011;6120;52.250;8.478;2022-11-10T09:45:52;22.45;;;7.93;;
12112;SDS011;6120;52.250;8.478;2022-11-10T09:48:24;22.95;;;7.85;;
12112;SDS011;6120;52.250;8.478;2022-11-10T09:50:54;19.58;;;7.18;;
12112;SDS011;6120;52.250;8.478;2022-11-10T09:53:37;15.40;;;6.47;;
12112;SDS011;6120;52.250;8.478;2022-11-10T09:56:16;12.32;;;6.55;;
12112;SDS011;6120;52.250;8.478;2022-11-10T09:58:45;18.77;;;6.57;;
12112;SDS011;6120;52.250;8.478;2022-11-10T10:04:18;20.88;;;7.35;;
12112;SDS011;6120;52.250;8.478;2022-11-10T10:06:57;18.52;;;5.78;;
12112;SDS011;6120;52.250;8.478;2022-11-10T10:20:42;21.10;;;6.22;;
12112;SDS011;6120;52.250;8.478;2022-11-10T10:23:32;15.38;;;4.50;;
12112;SDS011;6120;52.250;8.478;2022-11-10T10:26:28;22.02;;;5.10;;
12112;SDS011;6120;52.250;8.478;2022-11-10T10:28:57;14.40;;;4.15;;
12112;SDS011;6120;52.250;8.478;2022-11-10T10:31:35;24.85;;;4.78;;
12112;SDS011;6120;52.250;8.478;2022-11-10T10:34:18;15.73;;;4.90;;
12112;SDS011;6120;52.250;8.478;2022-11-10T10:36:46;17.60;;;4.10;;
12112;SDS011;6120;52.250;8.478;2022-11-10T10:42:28;11.30;;;2.92;;
12112;SDS011;6120;52.250;8.478;2022-11-10T10:45:11;16.38;;;3.30;;
12112;SDS011;6120;52.250;8.478;2022-11-10T10:47:46;11.38;;;3.00;;
12112;SDS011;6120;52.250;8.478;2022-11-10T10:50:31;11.80;;;3.70;;
12112;SDS011;6120;52.250;8.478;2022-11-10T11:06:18;13.55;;;2.42;;
12112;SDS011;6120;52.250;8.478;2022-11-10T11:08:53;13.20;;;2.53;;
12112;SDS011;6120;52.250;8.478;2022-11-10T11:16:45;11.10;;;2.17;;
12112;SDS011;6120;52.250;8.478;2022-11-10T11:19:13;11.13;;;2.40;;
12112;SDS011;6120;52.250;8.478;2022-11-10T11:21:52;18.88;;;2.60;;
12112;SDS011;6120;52.250;8.478;2022-11-10T11:24:26;23.83;;;3.90;;
12112;SDS011;6120;52.250;8.478;2022-11-10T11:27:00;14.38;;;2.85;;
12112;SDS011;6120;52.250;8.478;2022-11-10T11:35:23;8.40;;;1.95;;
12112;SDS011;6120;52.250;8.478;2022-11-10T11:38:10;16.52;;;3.42;;
12112;SDS011;6120;52.250;8.478;2022-11-10T11:46:27;10.45;;;2.08;;
12112;SDS011;6120;52.250;8.478;2022-11-10T11:57:51;16.33;;;2.85;;
12112;SDS011;6120;52.250;8.478;2022-11-10T12:00:34;9.05;;;2.13;;
12112;SDS011;6120;52.250;8.478;2022-11-10T12:03:29;15.75;;;2.50;;
12112;SDS011;6120;52.250;8.478;2022-11-10T12:16:56;13.38;;;2.45;;
12112;SDS011;6120;52.250;8.478;2022-11-10T12:19:37;10.88;;;1.90;;
12112;SDS011;6120;52.250;8.478;2022-11-10T12:22:27;11.52;;;2.45;;
12112;SDS011;6120;52.250;8.478;2022-11-10T12:25:05;16.17;;;2.85;;
12112;SDS011;6120;52.250;8.478;2022-11-10T12:27:36;19.10;;;2.33;;
12112;SDS011;6120;52.250;8.478;2022-11-10T12:30:13;15.20;;;3.05;;
12112;SDS011;6120;52.250;8.478;2022-11-10T12:32:49;12.38;;;2.30;;
12112;SDS011;6120;52.250;8.478;2022-11-10T12:37:49;11.00;;;2.22;;
12112;SDS011;6120;52.250;8.478;2022-11-10T12:40:38;10.15;;;2.10;;
12112;SDS011;6120;52.250;8.478;2022-11-10T12:46:08;14.85;;;2.55;;
12112;SDS011;6120;52.250;8.478;2022-11-10T12:48:41;10.63;;;2.30;;
12112;SDS011;6120;52.250;8.478;2022-11-10T12:54:10;15.82;;;2.88;;
12112;SDS011;6120;52.250;8.478;2022-11-10T13:01:51;10.85;;;2.30;;
12112;SDS011;6120;52.250;8.478;2022-11-10T13:04:22;9.23;;;2.00;;
12112;SDS011;6120;52.250;8.478;2022-11-10T13:06:55;18.73;;;2.88;;
12112;SDS011;6120;52.250;8.478;2022-11-10T13:09:37;9.88;;;1.98;;
12112;SDS011;6120;52.250;8.478;2022-11-10T13:14:36;14.95;;;3.40;;
12112;SDS011;6120;52.250;8.478;2022-11-10T13:17:03;12.57;;;3.13;;
12112;SDS011;6120;52.250;8.478;2022-11-10T13:22:06;14.43;;;2.22;;
12112;SDS011;6120;52.250;8.478;2022-11-10T13:24:38;10.35;;;2.03;;
12112;SDS011;6120;52.250;8.478;2022-11-10T13:27:11;9.15;;;1.73;;
12112;SDS011;6120;52.250;8.478;2022-11-10T13:29:59;9.60;;;2.15;;
12112;SDS011;6120;52.250;8.478;2022-11-10T13:32:32;15.45;;;1.85;;
12112;SDS011;6120;52.250;8.478;2022-11-10T13:37:53;22.52;;;2.03;;
12112;SDS011;6120;52.250;8.478;2022-11-10T13:47:53;15.48;;;2.83;;
12112;SDS011;6120;52.250;8.478;2022-11-10T13:56:02;17.85;;;2.60;;
12112;SDS011;6120;52.250;8.478;2022-11-10T13:58:32;9.40;;;1.88;;
12112;SDS011;6120;52.250;8.478;2022-11-10T14:06:13;14.52;;;2.25;;
12112;SDS011;6120;52.250;8.478;2022-11-10T14:08:41;7.60;;;1.63;;
12112;SDS011;6120;52.250;8.478;2022-11-10T14:11:18;9.90;;;2.10;;
12112;SDS011;6120;52.250;8.478;2022-11-10T14:16:58;11.40;;;1.55;;
12112;SDS011;6120;52.250;8.478;2022-11-10T14:19:39;12.20;;;2.50;;
12112;SDS011;6120;52.250;8.478;2022-11-10T14:24:51;17.83;;;2.65;;
12112;SDS011;6120;52.250;8.478;2022-11-10T14:27:23;12.27;;;1.80;;
12112;SDS011;6120;52.250;8.478;2022-11-10T14:32:40;11.73;;;1.58;;
12112;SDS011;6120;52.250;8.478;2022-11-10T14:35:14;14.50;;;2.05;;
12112;SDS011;6120;52.250;8.478;2022-11-10T14:37:43;12.15;;;1.98;;
12112;SDS011;6120;52.250;8.478;2022-11-10T14:40:11;19.48;;;2.60;;
12112;SDS011;6120;52.250;8.478;2022-11-10T14:42:43;13.63;;;2.17;;
12112;SDS011;6120;52.250;8.478;2022-11-10T14:45:15;20.45;;;2.88;;
12112;SDS011;6120;52.250;8.478;2022-11-10T14:47:49;10.23;;;2.08;;
12112;SDS011;6120;52.250;8.478;2022-11-10T14:55:41;10.15;;;2.08;;
12112;SDS011;6120;52.250;8.478;2022-11-10T15:00:36;15.07;;;2.58;;
12112;SDS011;6120;52.250;8.478;2022-11-10T15:03:04;10.82;;;2.35;;
12112;SDS011;6120;52.250;8.478;2022-11-10T15:05:32;11.93;;;2.00;;
12112;SDS011;6120;52.250;8.478;2022-11-10T15:07:59;10.57;;;1.92;;
12112;SDS011;6120;52.250;8.478;2022-11-10T15:10:41;23.42;;;2.92;;
12112;SDS011;6120;52.250;8.478;2022-11-10T15:15:39;11.32;;;3.22;;
12112;SDS011;6120;52.250;8.478;2022-11-10T15:18:21;11.77;;;2.50;;
12112;SDS011;6120;52.250;8.478;2022-11-10T15:21:03;12.25;;;2.97;;
12112;SDS011;6120;52.250;8.478;2022-11-10T15:23:37;9.63;;;1.90;;
12112;SDS011;6120;52.250;8.478;2022-11-10T15:26:05;10.80;;;2.05;;
12112;SDS011;6120;52.250;8.478;2022-11-10T15:28:40;10.73;;;2.00;;
12112;SDS011;6120;52.250;8.478;2022-11-10T15:31:11;10.05;;;1.58;;
12112;SDS011;6120;52.250;8.478;2022-11-10T15:33:47;10.90;;;2.50;;
12112;SDS011;6120;52.250;8.478;2022-11-10T15:36:23;10.27;;;2.10;;
12112;SDS011;6120;52.250;8.478;2022-11-10T15:39:01;13.27;;;2.03;;
12112;SDS011;6120;52.250;8.478;2022-11-10T15:41:32;11.70;;;1.98;;
12112;SDS011;6120;52.250;8.478;2022-11-10T15:44:20;16.23;;;2.10;;
12112;SDS011;6120;52.250;8.478;2022-11-10T15:46:50;11.00;;;2.42;;
12112;SDS011;6120;52.250;8.478;2022-11-10T15:49:24;11.10;;;1.90;;
12112;SDS011;6120;52.250;8.478;2022-11-10T15:52:14;10.65;;;1.85;;
12112;SDS011;6120;52.250;8.478;2022-11-10T15:54:45;9.80;;;1.80;;
12112;SDS011;6120;52.250;8.478;2022-11-10T15:57:13;10.32;;;1.92;;
12112;SDS011;6120;52.250;8.478;2022-11-10T15:59:41;12.07;;;1.92;;
12112;SDS011;6120;52.250;8.478;2022-11-10T16:02:18;9.63;;;1.52;;
12112;SDS011;6120;52.250;8.478;2022-11-10T16:04:45;12.73;;;1.80;;
12112;SDS011;6120;52.250;8.478;2022-11-10T16:07:12;7.32;;;1.73;;
12112;SDS011;6120;52.250;8.478;2022-11-10T16:09:39;7.72;;;2.05;;
12112;SDS011;6120;52.250;8.478;2022-11-10T16:12:08;10.57;;;1.92;;
12112;SDS011;6120;52.250;8.478;2022-11-10T16:14:39;15.05;;;2.10;;
12112;SDS011;6120;52.250;8.478;2022-11-10T16:17:07;8.13;;;1.73;;
12112;SDS011;6120;52.250;8.478;2022-11-10T16:19:35;10.25;;;1.90;;
12112;SDS011;6120;52.250;8.478;2022-11-10T16:22:01;10.82;;;1.88;;
12112;SDS011;6120;52.250;8.478;2022-11-10T16:24:28;6.28;;;2.00;;
12112;SDS011;6120;52.250;8.478;2022-11-10T16:26:55;10.05;;;1.90;;
12112;SDS011;6120;52.250;8.478;2022-11-10T16:29:21;9.70;;;1.40;;
12112;SDS011;6120;52.250;8.478;2022-11-10T16:31:48;11.30;;;2.13;;
12112;SDS011;6120;52.250;8.478;2022-11-10T16:34:15;8.13;;;1.95;;
12112;SDS011;6120;52.250;8.478;2022-11-10T16:36:42;11.40;;;2.05;;
12112;SDS011;6120;52.250;8.478;2022-11-10T16:39:12;9.15;;;1.60;;
12112;SDS011;6120;52.250;8.478;2022-11-10T16:41:40;10.18;;;1.92;;
12112;SDS011;6120;52.250;8.478;2022-11-10T16:44:08;5.70;;;1.48;;
12112;SDS011;6120;52.250;8.478;2022-11-10T16:46:37;8.30;;;1.60;;
12112;SDS011;6120;52.250;8.478;2022-11-10T16:49:04;8.68;;;1.50;;
12112;SDS011;6120;52.250;8.478;2022-11-10T16:53:59;6.47;;;1.40;;
12112;SDS011;6120;52.250;8.478;2022-11-10T16:56:26;7.57;;;1.33;;
12112;SDS011;6120;52.250;8.478;2022-11-10T16:58:52;9.48;;;1.50;;
12112;SDS011;6120;52.250;8.478;2022-11-10T17:01:20;7.50;;;1.98;;
12112;SDS011;6120;52.250;8.478;2022-11-10T17:03:49;5.10;;;1.42;;
12112;SDS011;6120;52.250;8.478;2022-11-10T17:08:44;12.13;;;2.05;;
12112;SDS011;6120;52.250;8.478;2022-11-10T17:13:38;6.97;;;1.55;;
12112;SDS011;6120;52.250;8.478;2022-11-10T17:16:05;6.68;;;1.40;;
12112;SDS011;6120;52.250;8.478;2022-11-10T17:18:37;8.02;;;1.70;;
12112;SDS011;6120;52.250;8.478;2022-11-10T17:21:04;6.47;;;1.40;;